createdAt,value
2022-08-28T00:01:01.873Z,97701.16
2022-08-28T00:03:30.552Z,97699.25
2022-08-28T00:05:57.181Z,97699.28
2022-08-28T00:08:23.988Z,97708.28
2022-08-28T00:10:52.593Z,97709.47
2022-08-28T00:13:23.338Z,97703.66
2022-08-28T00:15:58.211Z,97718.53
2022-08-28T00:18:26.541Z,97718.53
2022-08-28T00:20:53.987Z,97707.97
2022-08-28T00:23:23.237Z,97713.03
2022-08-28T00:25:49.938Z,97712.25
2022-08-28T00:28:23.473Z,97713.03
2022-08-28T00:30:56.362Z,97713.81
2022-08-28T00:33:27.339Z,97709.16
2022-08-28T00:35:55.071Z,97713.00
2022-08-28T00:38:27.503Z,97721.47
2022-08-28T00:40:58.377Z,97710.56
2022-08-28T00:43:41.760Z,97705.47
2022-08-28T00:46:12.098Z,97704.31
2022-08-28T00:48:39.741Z,97702.81
2022-08-28T00:51:27.766Z,97705.53
2022-08-28T00:53:59.041Z,97700.88
2022-08-28T00:56:28.270Z,97700.53
2022-08-28T00:58:58.655Z,97692.75
2022-08-28T01:01:25.627Z,97703.28
2022-08-28T01:03:52.289Z,97704.09
2022-08-28T01:06:24.335Z,97706.41
2022-08-28T01:08:53.868Z,97702.13
2022-08-28T01:11:21.197Z,97701.75
2022-08-28T01:13:52.922Z,97702.59
2022-08-28T01:16:23.091Z,97692.47
2022-08-28T01:19:04.740Z,97694.78
2022-08-28T01:21:47.187Z,97697.16
2022-08-28T01:24:20.589Z,97694.47
2022-08-28T01:26:47.333Z,97692.16
2022-08-28T01:29:16.837Z,97684.03
2022-08-28T01:31:45.395Z,97685.97
2022-08-28T01:34:13.217Z,97685.63
2022-08-28T01:36:41.381Z,97686.78
2022-08-28T01:39:16.661Z,97690.31
2022-08-28T01:41:47.544Z,97686.13
2022-08-28T01:44:18.164Z,97678.31
2022-08-28T01:46:47.574Z,97675.19
2022-08-28T01:49:14.334Z,97686.13
2022-08-28T01:51:42.598Z,97683.44
2022-08-28T01:54:10.191Z,97690.88
2022-08-28T01:56:39.072Z,97687.75
2022-08-28T01:59:09.258Z,97688.16
2022-08-28T02:01:36.511Z,97690.88
2022-08-28T02:04:04.555Z,97684.34
2022-08-28T02:06:31.784Z,97680.56
2022-08-28T02:08:59.669Z,97685.22
2022-08-28T02:11:29.473Z,97678.59
2022-08-28T02:13:56.231Z,97687.59
2022-08-28T02:16:23.547Z,97687.22
2022-08-28T02:18:50.342Z,97688.06
2022-08-28T02:21:17.368Z,97687.72
2022-08-28T02:23:51.152Z,97685.44
2022-08-28T02:26:20.931Z,97694.00
2022-08-28T02:28:48.436Z,97697.13
2022-08-28T02:31:18.887Z,97702.94
2022-08-28T02:33:51.987Z,97702.13
2022-08-28T02:36:18.652Z,97701.00
2022-08-28T02:38:46.423Z,97704.91
2022-08-28T02:41:15.417Z,97708.03
2022-08-28T02:43:42.390Z,97713.84
2022-08-28T02:46:09.486Z,97709.13
2022-08-28T02:48:37.972Z,97715.38
2022-08-28T02:51:10.553Z,97712.34
2022-08-28T02:53:45.891Z,97706.91
2022-08-28T02:56:13.684Z,97708.84
2022-08-28T02:58:40.785Z,97706.13
2022-08-28T03:01:11.128Z,97709.97
2022-08-28T03:03:40.791Z,97703.75
2022-08-28T03:06:14.827Z,97700.63
2022-08-28T03:08:42.596Z,97692.88
2022-08-28T03:11:09.473Z,97697.50
2022-08-28T03:13:36.247Z,97702.91
2022-08-28T03:16:04.776Z,97704.06
2022-08-28T03:18:33.148Z,97700.13
2022-08-28T03:21:02.105Z,97698.19
2022-08-28T03:23:29.157Z,97704.41
2022-08-28T03:26:09.657Z,97705.19
2022-08-28T03:28:40.426Z,97705.91
2022-08-28T03:31:09.459Z,97703.16
2022-08-28T03:33:38.390Z,97703.50
2022-08-28T03:36:10.397Z,97710.53
2022-08-28T03:38:39.152Z,97701.16
2022-08-28T03:41:11.628Z,97707.72
2022-08-28T03:43:38.341Z,97710.75
2022-08-28T03:46:06.226Z,97702.94
2022-08-28T03:48:38.291Z,97710.66
2022-08-28T03:51:14.851Z,97718.75
2022-08-28T03:53:47.609Z,97717.53
2022-08-28T03:56:19.032Z,97711.66
2022-08-28T03:58:45.589Z,97712.81
2022-08-28T04:01:12.378Z,97718.25
2022-08-28T04:03:39.550Z,97710.03
2022-08-28T04:06:06.747Z,97706.50
2022-08-28T04:08:33.680Z,97706.00
2022-08-28T04:11:01.014Z,97712.25
2022-08-28T04:13:28.195Z,97715.72
2022-08-28T04:16:06.390Z,97715.34
2022-08-28T04:18:33.349Z,97718.03
2022-08-28T04:21:08.105Z,97720.28
2022-08-28T04:23:36.319Z,97713.41
2022-08-28T04:26:06.342Z,97714.16
2022-08-28T04:28:33.425Z,97724.66
2022-08-28T04:31:00.491Z,97721.91
2022-08-28T04:33:28.361Z,97721.47
2022-08-28T04:36:03.343Z,97723.06
2022-08-28T04:38:30.344Z,97727.28
2022-08-28T04:40:56.975Z,97726.94
2022-08-28T04:43:27.418Z,97729.25
2022-08-28T04:45:54.071Z,97733.13
2022-08-28T04:48:25.369Z,97729.97
2022-08-28T04:50:53.625Z,97735.38
2022-08-28T04:53:20.535Z,97736.91
2022-08-28T04:55:55.074Z,97738.47
2022-08-28T04:58:26.818Z,97733.78
2022-08-28T05:00:54.410Z,97740.78
2022-08-28T05:03:21.324Z,97738.41
2022-08-28T05:05:51.997Z,97734.53
2022-08-28T05:08:22.344Z,97743.44
2022-08-28T05:10:50.878Z,97743.03
2022-08-28T05:13:18.891Z,97749.22
2022-08-28T05:15:48.287Z,97746.81
2022-08-28T05:18:16.182Z,97750.72
2022-08-28T05:20:46.143Z,97751.47
2022-08-28T05:23:14.543Z,97754.53
2022-08-28T05:25:45.461Z,97756.09
2022-08-28T05:28:14.811Z,97753.66
2022-08-28T05:30:45.984Z,97753.25
2022-08-28T05:33:14.586Z,97758.59
2022-08-28T05:35:47.529Z,97759.38
2022-08-28T05:38:16.355Z,97764.00
2022-08-28T05:40:45.939Z,97761.25
2022-08-28T05:43:20.241Z,97765.03
2022-08-28T05:45:57.901Z,97766.06
2022-08-28T05:48:32.858Z,97772.19
2022-08-28T05:51:05.150Z,97774.44
2022-08-28T05:53:35.638Z,97778.59
2022-08-28T05:56:05.418Z,97773.03
2022-08-28T05:58:33.505Z,97783.16
2022-08-28T06:01:11.401Z,97776.84
2022-08-28T06:03:40.055Z,97783.38
2022-08-28T06:06:09.909Z,97784.84
2022-08-28T06:08:37.418Z,97784.31
2022-08-28T06:11:05.304Z,97788.44
2022-08-28T06:13:34.745Z,97781.81
2022-08-28T06:16:03.050Z,97780.19
2022-08-28T06:18:29.640Z,97793.91
2022-08-28T06:20:56.207Z,97794.28
2022-08-28T06:23:24.241Z,97802.78
2022-08-28T06:25:52.004Z,97799.75
2022-08-28T06:28:25.047Z,97806.75
2022-08-28T06:31:23.771Z,97802.78
2022-08-28T06:33:43.557Z,97794.78
2022-08-28T06:36:11.342Z,97802.44
2022-08-28T06:38:38.289Z,97799.94
2022-08-28T06:41:09.351Z,97801.06
2022-08-28T06:43:36.306Z,97800.19
2022-08-28T06:46:04.226Z,97805.09
2022-08-28T06:48:39.898Z,97796.72
2022-08-28T06:51:17.764Z,97797.72
2022-08-28T06:53:46.590Z,97804.72
2022-08-28T06:56:26.856Z,97805.91
2022-08-28T06:58:56.201Z,97809.56
2022-08-28T07:01:30.705Z,97810.53
2022-08-28T07:04:04.122Z,97804.91
2022-08-28T07:06:34.509Z,97806.81
2022-08-28T07:09:01.689Z,97810.59
2022-08-28T07:11:31.437Z,97816.94
2022-08-28T07:13:58.883Z,97814.47
2022-08-28T07:16:33.892Z,97811.31
2022-08-28T07:19:04.365Z,97819.72
2022-08-28T07:21:38.923Z,97816.69
2022-08-28T07:24:12.642Z,97817.38
2022-08-28T07:26:41.167Z,97817.59
2022-08-28T07:29:10.846Z,97824.34
2022-08-28T07:31:42.572Z,97815.78
2022-08-28T07:34:11.505Z,97820.13
2022-08-28T07:36:38.725Z,97818.13
2022-08-28T07:39:10.357Z,97835.16
2022-08-28T07:41:40.394Z,97814.72
2022-08-28T07:44:28.592Z,97828.34
2022-08-28T07:46:57.668Z,97824.44
2022-08-28T07:49:24.811Z,97831.28
2022-08-28T07:51:54.093Z,97832.16
2022-08-28T07:54:23.449Z,97831.53
2022-08-28T07:56:52.726Z,97837.19
2022-08-28T07:59:20.395Z,97837.53
2022-08-28T08:01:50.906Z,97835.25
2022-08-28T08:04:20.016Z,97843.41
2022-08-28T08:06:47.037Z,97839.16
2022-08-28T08:09:19.685Z,97842.78
2022-08-28T08:11:49.113Z,97850.72
2022-08-28T08:14:17.064Z,97846.75
2022-08-28T08:16:46.093Z,97850.16
2022-08-28T08:19:16.542Z,97852.22
2022-08-28T08:21:53.218Z,97849.06
2022-08-28T08:24:25.786Z,97850.44
2022-08-28T08:27:00.225Z,97850.31
2022-08-28T08:29:29.921Z,97852.50
2022-08-28T08:32:04.416Z,97852.63
2022-08-28T08:34:32.519Z,97850.78
2022-08-28T08:36:59.171Z,97854.44
2022-08-28T08:39:26.151Z,97858.78
2022-08-28T08:41:57.868Z,97860.69
2022-08-28T08:44:37.630Z,97859.53
2022-08-28T08:47:15.748Z,97860.09
2022-08-28T08:50:00.319Z,97857.63
2022-08-28T08:52:34.687Z,97857.13
2022-08-28T08:55:05.268Z,97862.38
2022-08-28T08:57:34.996Z,97856.03
2022-08-28T09:00:05.834Z,97860.53
2022-08-28T09:02:39.614Z,97862.50
2022-08-28T09:05:13.408Z,97864.41
2022-08-28T09:08:03.166Z,97869.16
2022-08-28T09:10:42.219Z,97860.19
2022-08-28T09:13:28.297Z,97859.72
2022-08-28T09:15:54.843Z,97862.88
2022-08-28T09:18:26.103Z,97867.63
2022-08-28T09:20:55.907Z,97870.28
2022-08-28T09:23:24.256Z,97863.19
2022-08-28T09:25:59.803Z,97863.50
2022-08-28T09:28:40.798Z,97863.66
2022-08-28T09:31:33.404Z,97864.31
2022-08-28T09:34:36.754Z,97863.44
2022-08-28T09:37:10.427Z,97859.59
2022-08-28T09:39:40.759Z,97850.50
2022-08-28T09:42:38.153Z,97853.81
2022-08-28T09:45:21.301Z,97860.53
2022-08-28T09:47:49.586Z,97862.25
2022-08-28T09:50:35.461Z,97864.03
2022-08-28T09:53:15.668Z,97860.88
2022-08-28T09:56:11.164Z,97852.75
2022-08-28T09:58:47.217Z,97853.97
2022-08-28T10:01:45.102Z,97851.88
2022-08-28T10:04:54.819Z,97849.00
2022-08-28T10:07:49.324Z,97851.50
2022-08-28T10:10:32.460Z,97847.72
2022-08-28T10:13:20.226Z,97859.16
2022-08-28T10:15:59.524Z,97854.25
2022-08-28T10:18:55.136Z,97852.88
2022-08-28T10:21:43.473Z,97843.47
2022-08-28T10:24:24.736Z,97835.59
2022-08-28T10:27:17.532Z,97845.00
2022-08-28T10:30:12.482Z,97846.53
2022-08-28T10:33:16.509Z,97837.38
2022-08-28T10:36:01.355Z,97833.69
2022-08-28T10:39:11.751Z,97840.78
2022-08-28T10:41:46.746Z,97842.75
2022-08-28T10:44:23.478Z,97839.41
2022-08-28T10:46:55.642Z,97841.47
2022-08-28T10:49:37.268Z,97848.78
2022-08-28T10:52:10.462Z,97842.91
2022-08-28T10:54:46.201Z,97849.91
2022-08-28T10:57:31.132Z,97846.28
2022-08-28T11:00:02.169Z,97831.03
2022-08-28T11:02:30.315Z,97845.47
2022-08-28T11:04:58.656Z,97841.97
2022-08-28T11:07:34.883Z,97848.44
2022-08-28T11:10:28.995Z,97851.50
2022-08-28T11:13:02.869Z,97846.13
2022-08-28T11:15:36.751Z,97844.56
2022-08-28T11:18:21.319Z,97845.44
2022-08-28T11:21:18.774Z,97845.03
2022-08-28T11:23:56.326Z,97845.06
2022-08-28T11:26:52.337Z,97842.47
2022-08-28T11:29:56.388Z,97835.03
2022-08-28T11:32:31.713Z,97838.03
2022-08-28T11:35:14.558Z,97836.25
2022-08-28T11:37:44.689Z,97833.66
2022-08-28T11:40:21.633Z,97831.97
2022-08-28T11:42:51.260Z,97830.69
2022-08-28T11:45:40.322Z,97834.94
2022-08-28T11:48:29.910Z,97825.44
2022-08-28T11:51:02.476Z,97826.75
2022-08-28T11:54:17.071Z,97828.56
2022-08-28T11:57:06.781Z,97824.28
2022-08-28T11:59:50.502Z,97829.66
2022-08-28T12:02:32.064Z,97827.13
2022-08-28T12:04:58.923Z,97828.16
2022-08-28T12:07:39.310Z,97826.97
2022-08-28T12:10:27.605Z,97825.84
2022-08-28T12:12:58.722Z,97821.47
2022-08-28T12:15:28.267Z,97814.72
2022-08-28T12:18:13.700Z,97828.97
2022-08-28T12:21:07.354Z,97825.06
2022-08-28T12:23:45.134Z,97814.22
2022-08-28T12:26:36.119Z,97830.41
2022-08-28T12:29:27.137Z,97822.97
2022-08-28T12:32:38.684Z,97820.84
2022-08-28T12:35:15.321Z,97825.13
2022-08-28T12:37:52.131Z,97813.16
2022-08-28T12:40:29.186Z,97814.59
2022-08-28T12:42:59.111Z,97814.22
2022-08-28T12:45:28.471Z,97817.88
2022-08-28T12:48:02.198Z,97816.78
2022-08-28T12:50:38.266Z,97807.75
2022-08-28T12:53:14.378Z,97814.03
2022-08-28T12:55:41.301Z,97809.03
2022-08-28T12:58:32.704Z,97807.19
2022-08-28T13:01:07.010Z,97808.88
2022-08-28T13:03:37.245Z,97798.66
2022-08-28T13:06:07.654Z,97799.25
2022-08-28T13:08:36.736Z,97801.03
2022-08-28T13:11:04.582Z,97796.94
2022-08-28T13:13:38.654Z,97793.66
2022-08-28T13:16:12.216Z,97794.13
2022-08-28T13:18:50.455Z,97788.09
2022-08-28T13:21:31.723Z,97781.81
2022-08-28T13:24:24.289Z,97785.28
2022-08-28T13:27:01.441Z,97780.97
2022-08-28T13:29:28.437Z,97780.75
2022-08-28T13:32:01.668Z,97763.28
2022-08-28T13:34:32.601Z,97766.88
2022-08-28T13:37:20.009Z,97770.88
2022-08-28T13:39:47.594Z,97770.81
2022-08-28T13:42:17.980Z,97768.59
2022-08-28T13:44:57.088Z,97763.06
2022-08-28T13:47:23.647Z,97764.78
2022-08-28T13:49:50.192Z,97756.94
2022-08-28T13:52:25.444Z,97755.97
2022-08-28T13:54:52.734Z,97757.50
2022-08-28T13:57:19.340Z,97753.38
2022-08-28T13:59:46.024Z,97754.16
2022-08-28T14:02:33.348Z,97747.28
2022-08-28T14:05:05.162Z,97747.28
2022-08-28T14:07:31.811Z,97748.38
2022-08-28T14:09:58.880Z,97743.28
2022-08-28T14:12:32.731Z,97751.38
2022-08-28T14:14:59.826Z,97747.81
2022-08-28T14:17:26.406Z,97737.72
2022-08-28T14:19:54.712Z,97747.31
2022-08-28T14:22:21.294Z,97735.63
2022-08-28T14:24:47.849Z,97731.50
2022-08-28T14:27:16.249Z,97732.34
2022-08-28T14:29:44.858Z,97735.66
2022-08-28T14:32:11.531Z,97733.16
2022-08-28T14:34:40.146Z,97727.06
2022-08-28T14:37:06.880Z,97727.53
2022-08-28T14:39:33.697Z,97726.56
2022-08-28T14:42:03.480Z,97721.69
2022-08-28T14:44:30.751Z,97727.53
2022-08-28T14:46:57.572Z,97716.41
2022-08-28T14:49:24.697Z,97719.38
2022-08-28T14:51:52.847Z,97729.84
2022-08-28T14:54:21.793Z,97720.97
2022-08-28T14:56:52.714Z,97716.91
2022-08-28T14:59:26.432Z,97715.91
2022-08-28T15:01:57.468Z,97720.72
2022-08-28T15:07:19.761Z,97707.28
2022-08-28T15:09:46.333Z,97711.81
2022-08-28T15:12:14.567Z,97707.53
2022-08-28T15:14:55.092Z,97710.81
2022-08-28T15:17:34.593Z,97712.88
2022-08-28T15:20:03.422Z,97717.16
2022-08-28T15:22:32.205Z,97709.78
2022-08-28T15:24:58.800Z,97707.56
2022-08-28T15:27:27.309Z,97709.16
2022-08-28T15:29:53.968Z,97708.50
2022-08-28T15:32:20.898Z,97709.06
2022-08-28T15:34:47.604Z,97705.75
2022-08-28T15:37:14.133Z,97705.56
2022-08-28T15:40:01.645Z,97712.31
2022-08-28T15:42:30.136Z,97696.44
2022-08-28T15:44:57.069Z,97702.94
2022-08-28T15:47:26.708Z,97697.31
2022-08-28T15:49:55.964Z,97697.06
2022-08-28T15:52:24.569Z,97698.03
2022-08-28T15:54:55.771Z,97700.16
2022-08-28T15:57:22.529Z,97691.69
2022-08-28T15:59:50.785Z,97697.47
2022-08-28T16:02:25.574Z,97700.06
2022-08-28T16:04:54.105Z,97695.22
2022-08-28T16:07:22.156Z,97698.44
2022-08-28T16:09:49.481Z,97691.66
2022-08-28T16:12:16.482Z,97696.53
2022-08-28T16:14:45.155Z,97698.69
2022-08-28T16:17:13.851Z,97701.81
2022-08-28T16:19:41.029Z,97691.47
2022-08-28T16:22:09.325Z,97697.38
2022-08-28T16:24:37.026Z,97697.28
2022-08-28T16:27:10.729Z,97695.81
2022-08-28T16:29:43.187Z,97696.22
2022-08-28T16:32:11.651Z,97703.63
2022-08-28T16:34:38.764Z,97693.63
2022-08-28T16:37:18.571Z,97683.03
2022-08-28T16:39:47.396Z,97691.16
2022-08-28T16:42:18.290Z,97693.00
2022-08-28T16:44:44.826Z,97690.38
2022-08-28T16:47:13.237Z,97695.69
2022-08-28T16:49:41.625Z,97695.44
2022-08-28T16:52:08.212Z,97693.16
2022-08-28T16:54:37.091Z,97696.63
2022-08-28T16:57:11.841Z,97692.34
2022-08-28T16:59:42.141Z,97700.84
2022-08-28T17:02:08.868Z,97697.88
2022-08-28T17:04:41.819Z,97689.91
2022-08-28T17:07:08.509Z,97700.41
2022-08-28T17:09:35.195Z,97698.50
2022-08-28T17:12:04.291Z,97697.13
2022-08-28T17:14:31.225Z,97706.13
2022-08-28T17:16:58.057Z,97705.00
2022-08-28T17:19:25.402Z,97705.44
2022-08-28T17:22:10.818Z,97704.78
2022-08-28T17:24:39.231Z,97704.72
2022-08-28T17:27:06.942Z,97704.63
2022-08-28T17:29:36.492Z,97715.81
2022-08-28T17:32:05.458Z,97713.38
2022-08-28T17:34:34.325Z,97715.00
2022-08-28T17:37:01.257Z,97714.13
2022-08-28T17:39:28.502Z,97708.97
2022-08-28T17:41:55.287Z,97720.44
2022-08-28T17:44:21.804Z,97716.44
2022-08-28T17:46:53.838Z,97727.31
2022-08-28T17:49:20.473Z,97728.81
2022-08-28T17:51:47.004Z,97732.13
2022-08-28T17:54:17.630Z,97729.91
2022-08-28T17:56:46.639Z,97733.69
2022-08-28T17:59:14.162Z,97734.22
2022-08-28T18:01:42.468Z,97733.22
2022-08-28T18:04:09.279Z,97733.28
2022-08-28T18:06:36.151Z,97735.34
2022-08-28T18:09:04.633Z,97733.84
2022-08-28T18:11:31.305Z,97733.44
2022-08-28T18:13:59.794Z,97730.41
2022-08-28T18:16:31.167Z,97739.81
2022-08-28T18:19:01.124Z,97739.66
2022-08-28T18:21:29.493Z,97746.75
2022-08-28T18:23:56.764Z,97739.75
2022-08-28T18:26:23.579Z,97748.03
2022-08-28T18:28:52.749Z,97740.25
2022-08-28T18:31:19.920Z,97747.78
2022-08-28T18:33:46.657Z,97748.84
2022-08-28T18:36:17.796Z,97752.22
2022-08-28T18:38:44.570Z,97757.59
2022-08-28T18:41:12.116Z,97761.28
2022-08-28T18:43:39.222Z,97763.16
2022-08-28T18:46:09.238Z,97765.75
2022-08-28T18:48:40.205Z,97764.34
2022-08-28T18:51:08.661Z,97774.19
2022-08-28T18:53:36.035Z,97778.47
2022-08-28T18:56:04.502Z,97776.31
2022-08-28T18:58:33.610Z,97781.38
2022-08-28T19:01:01.397Z,97789.03
2022-08-28T19:03:28.463Z,97790.06
2022-08-28T19:05:56.389Z,97790.66
2022-08-28T19:08:26.162Z,97792.78
2022-08-28T19:10:54.117Z,97796.63
2022-08-28T19:13:27.342Z,97795.50
2022-08-28T19:15:54.191Z,97802.34
2022-08-28T19:18:21.014Z,97807.94
2022-08-28T19:20:50.328Z,97815.84
2022-08-28T19:23:17.880Z,97813.16
2022-08-28T19:25:45.712Z,97809.59
2022-08-28T19:28:12.693Z,97811.09
2022-08-28T19:30:39.421Z,97816.84
2022-08-28T19:33:06.219Z,97826.25
2022-08-28T19:35:33.929Z,97819.47
2022-08-28T19:38:04.632Z,97824.31
2022-08-28T19:40:31.755Z,97826.13
2022-08-28T19:43:00.658Z,97824.84
2022-08-28T19:45:27.776Z,97826.28
2022-08-28T19:47:54.299Z,97833.91
2022-08-28T19:50:30.723Z,97839.53
2022-08-28T19:53:00.670Z,97845.16
2022-08-28T19:55:27.891Z,97847.66
2022-08-28T19:57:54.970Z,97848.56
2022-08-28T20:00:25.411Z,97852.31
2022-08-28T20:02:52.613Z,97852.88
2022-08-28T20:05:22.266Z,97849.78
2022-08-28T20:07:49.001Z,97859.38
2022-08-28T20:10:16.292Z,97858.84
2022-08-28T20:12:48.101Z,97862.13
2022-08-28T20:15:17.584Z,97860.72
2022-08-28T20:17:50.179Z,97867.41
2022-08-28T20:20:21.081Z,97869.50
2022-08-28T20:22:53.939Z,97871.81
2022-08-28T20:25:21.442Z,97870.72
2022-08-28T20:27:49.789Z,97873.25
2022-08-28T20:30:16.682Z,97871.72
2022-08-28T20:32:43.266Z,97882.28
2022-08-28T20:35:14.122Z,97876.19
2022-08-28T20:37:45.667Z,97876.53
2022-08-28T20:40:20.714Z,97884.69
2022-08-28T20:42:48.104Z,97888.28
2022-08-28T20:45:17.919Z,97883.88
2022-08-28T20:47:46.054Z,97881.59
2022-08-28T20:50:14.126Z,97884.00
2022-08-28T20:52:40.811Z,97886.19
2022-08-28T20:55:08.548Z,97887.28
2022-08-28T20:57:36.959Z,97887.97
2022-08-28T21:00:07.864Z,97887.31
2022-08-28T21:02:34.499Z,97896.53
2022-08-28T21:05:01.366Z,97890.28
2022-08-28T21:07:28.557Z,97898.00
2022-08-28T21:10:08.017Z,97897.66
2022-08-28T21:12:39.185Z,97905.25
2022-08-28T21:15:08.471Z,97895.88
2022-08-28T21:17:41.584Z,97896.91
2022-08-28T21:20:12.547Z,97905.25
2022-08-28T21:22:40.285Z,97897.97
2022-08-28T21:25:11.227Z,97904.34
2022-08-28T21:27:40.209Z,97895.13
2022-08-28T21:30:09.013Z,97904.56
2022-08-28T21:32:38.268Z,97906.44
2022-08-28T21:35:07.082Z,97906.88
2022-08-28T21:37:34.835Z,97905.78
2022-08-28T21:40:06.455Z,97903.25
2022-08-28T21:42:33.107Z,97903.47
2022-08-28T21:44:59.874Z,97899.28
2022-08-28T21:47:28.276Z,97900.56
2022-08-28T21:49:56.489Z,97895.16
2022-08-28T21:52:26.535Z,97898.34
2022-08-28T21:55:02.231Z,97893.06
2022-08-28T21:57:29.098Z,97893.06
2022-08-28T21:59:56.394Z,97897.53
2022-08-28T22:02:23.474Z,97900.41
2022-08-28T22:04:50.216Z,97902.56
2022-08-28T22:07:17.468Z,97903.13
2022-08-28T22:09:51.884Z,97899.25
2022-08-28T22:12:18.669Z,97902.44
2022-08-28T22:14:45.216Z,97905.28
2022-08-28T22:17:13.733Z,97911.63
2022-08-28T22:19:40.873Z,97907.44
2022-08-28T22:22:29.083Z,97908.31
2022-08-28T22:24:58.068Z,97903.03
2022-08-28T22:27:24.677Z,97901.66
2022-08-28T22:29:51.392Z,97903.72
2022-08-28T22:32:18.339Z,97903.72
2022-08-28T22:34:46.476Z,97899.44
2022-08-28T22:37:17.912Z,97896.38
2022-08-28T22:39:44.468Z,97899.88
2022-08-28T22:42:11.084Z,97907.66
2022-08-28T22:44:41.431Z,97904.94
2022-08-28T22:47:08.044Z,97903.06
2022-08-28T22:49:36.038Z,97902.69
2022-08-28T22:52:08.350Z,97909.41
2022-08-28T22:54:35.065Z,97907.53
2022-08-28T22:57:01.917Z,97906.66
2022-08-28T22:59:28.645Z,97905.09
2022-08-28T23:01:55.533Z,97912.84
2022-08-28T23:04:22.165Z,97910.94
2022-08-28T23:06:51.643Z,97911.03
2022-08-28T23:09:20.360Z,97916.28
2022-08-28T23:11:47.087Z,97914.72
2022-08-28T23:14:15.422Z,97919.84
2022-08-28T23:16:44.196Z,97919.59
2022-08-28T23:19:13.626Z,97911.13
2022-08-28T23:21:44.219Z,97923.03
2022-08-28T23:24:16.108Z,97912.13
2022-08-28T23:26:46.147Z,97916.91
2022-08-28T23:29:15.199Z,97915.41
2022-08-28T23:31:41.813Z,97918.66
2022-08-28T23:34:09.184Z,97918.81
2022-08-28T23:36:36.787Z,97920.97
2022-08-28T23:39:06.012Z,97910.41
2022-08-28T23:41:33.684Z,97907.34
2022-08-28T23:44:01.688Z,97915.97
2022-08-28T23:46:30.803Z,97918.88
2022-08-28T23:48:57.581Z,97905.41
2022-08-28T23:51:24.183Z,97911.81
2022-08-28T23:53:52.184Z,97904.19
2022-08-28T23:56:18.881Z,97905.09
2022-08-28T23:58:45.677Z,97908.66
